Time;durP1;ratioP1;P1;durP2;ratioP2;P2;SDS_P1;SDS_P2;PMS_P1;PMS_P2;Temp;Humidity;BMP_temperature;BMP_pressure;BME280_temperature;BME280_humidity;BME280_pressure;Samples;Min_cycle;Max_cycle;Signal;HPM_P1;HPM_P2
2022/12/07 00:01:34;;;;;;;10.93;3.07;;;;;;;;;;5014068;28;20242;-67
2022/12/07 00:04:04;;;;;;;9.20;3.30;;;;;;;;;;5020352;28;20202;-67
2022/12/07 00:06:34;;;;;;;6.47;2.70;;;;;;;;;;5033535;28;20655;-67
2022/12/07 00:09:00;;;;;;;9.40;2.80;;;;;;;;;;5028660;28;20422;-67
2022/12/07 00:11:26;;;;;;;8.50;2.50;;;;;;;;;;5027564;28;20205;-67
2022/12/07 00:13:54;;;;;;;6.60;2.60;;;;;;;;;;5025274;28;20189;-67
2022/12/07 00:16:21;;;;;;;9.23;2.63;;;;;;;;;;5035735;28;20201;-67
2022/12/07 00:18:47;;;;;;;7.77;2.17;;;;;;;;;;5026900;28;20197;-67
2022/12/07 00:21:16;;;;;;;12.63;2.30;;;;;;;;;;5021117;28;20190;-67
2022/12/07 00:23:43;;;;;;;4.03;1.80;;;;;;;;;;5037047;28;20182;-67
2022/12/07 00:26:11;;;;;;;6.83;2.20;;;;;;;;;;5024732;28;20636;-67
2022/12/07 00:28:37;;;;;;;5.63;2.20;;;;;;;;;;5027184;28;20442;-67
2022/12/07 00:31:08;;;;;;;8.67;2.50;;;;;;;;;;5026180;28;20269;-67
2022/12/07 00:33:35;;;;;;;7.20;2.27;;;;;;;;;;5020953;28;20209;-67
2022/12/07 00:36:01;;;;;;;6.20;1.97;;;;;;;;;;5027150;28;20185;-67
2022/12/07 00:38:29;;;;;;;10.67;2.37;;;;;;;;;;5019318;28;20261;-67
2022/12/07 00:41:19;;;;;;;6.63;2.47;;;;;;;;;;5027046;28;20594;-67
2022/12/07 00:43:46;;;;;;;8.43;2.10;;;;;;;;;;5021095;28;20289;-67
2022/12/07 00:46:12;;;;;;;9.77;1.80;;;;;;;;;;5024582;28;20206;-67
2022/12/07 00:48:38;;;;;;;7.60;2.67;;;;;;;;;;5013009;28;20182;-67
2022/12/07 00:51:04;;;;;;;5.77;1.97;;;;;;;;;;5021724;28;20190;-67
2022/12/07 00:53:30;;;;;;;5.00;2.23;;;;;;;;;;5033570;28;20545;-67
2022/12/07 00:55:56;;;;;;;7.73;2.20;;;;;;;;;;5026398;28;20179;-67
2022/12/07 00:58:22;;;;;;;5.40;2.00;;;;;;;;;;5026560;28;20186;-67
2022/12/07 01:00:48;;;;;;;8.63;2.20;;;;;;;;;;5023453;28;20202;-67
2022/12/07 01:03:14;;;;;;;5.50;2.30;;;;;;;;;;5020407;28;20228;-67
2022/12/07 01:05:48;;;;;;;4.67;2.43;;;;;;;;;;5026132;28;20560;-67
2022/12/07 01:08:13;;;;;;;8.00;2.20;;;;;;;;;;5024187;28;20268;-67
2022/12/07 01:10:38;;;;;;;9.00;2.70;;;;;;;;;;5024401;28;20273;-67
2022/12/07 01:13:04;;;;;;;6.93;2.40;;;;;;;;;;5026541;28;20185;-67
2022/12/07 01:15:29;;;;;;;9.23;2.20;;;;;;;;;;5026537;28;20260;-68
2022/12/07 01:17:54;;;;;;;10.83;2.70;;;;;;;;;;5027738;28;20190;-67
2022/12/07 01:20:20;;;;;;;10.90;2.50;;;;;;;;;;5025749;28;20178;-67
2022/12/07 01:22:45;;;;;;;7.37;2.20;;;;;;;;;;5025845;28;20232;-67
2022/12/07 01:25:12;;;;;;;11.50;2.37;;;;;;;;;;5026087;28;20507;-67
2022/12/07 01:27:37;;;;;;;9.60;2.57;;;;;;;;;;5028858;28;20558;-68
2022/12/07 01:30:05;;;;;;;10.73;3.13;;;;;;;;;;5025227;28;20190;-67
2022/12/07 01:32:30;;;;;;;12.00;2.70;;;;;;;;;;5029935;28;20178;-67
2022/12/07 01:34:56;;;;;;;8.70;2.23;;;;;;;;;;5014827;28;20296;-67
2022/12/07 01:37:21;;;;;;;7.43;2.50;;;;;;;;;;5020987;28;20190;-67
2022/12/07 01:39:49;;;;;;;5.53;2.40;;;;;;;;;;5022700;28;20182;-68
2022/12/07 01:42:14;;;;;;;9.47;2.60;;;;;;;;;;5023349;28;20182;-67
2022/12/07 01:45:31;;;;;;;11.10;2.80;;;;;;;;;;5021032;28;20193;-67
2022/12/07 01:47:58;;;;;;;6.80;2.70;;;;;;;;;;5001808;28;20564;-67
2022/12/07 01:50:26;;;;;;;12.57;3.50;;;;;;;;;;5022721;28;20554;-67
2022/12/07 01:52:55;;;;;;;13.30;2.50;;;;;;;;;;5026208;28;20560;-67
2022/12/07 01:55:20;;;;;;;7.50;2.77;;;;;;;;;;5023238;28;20178;-67
2022/12/07 01:57:48;;;;;;;7.63;2.30;;;;;;;;;;5026310;28;20595;-67
2022/12/07 02:00:15;;;;;;;9.90;2.50;;;;;;;;;;5025899;28;20198;-67
2022/12/07 02:03:07;;;;;;;13.13;3.10;;;;;;;;;;5023036;28;20624;-68
2022/12/07 02:05:34;;;;;;;8.80;2.43;;;;;;;;;;5029716;28;20186;-67
2022/12/07 02:08:00;;;;;;;10.97;2.50;;;;;;;;;;5025413;28;20285;-67
2022/12/07 02:10:27;;;;;;;11.87;2.40;;;;;;;;;;5025137;28;20277;-67
2022/12/07 02:13:01;;;;;;;10.37;2.50;;;;;;;;;;5026515;28;20190;-67
2022/12/07 02:15:48;;;;;;;5.30;2.10;;;;;;;;;;5018384;28;20550;-66
2022/12/07 02:18:21;;;;;;;9.83;2.30;;;;;;;;;;5025208;28;20192;-66
2022/12/07 02:21:12;;;;;;;12.30;2.23;;;;;;;;;;5016232;28;20186;-66
2022/12/07 02:23:52;;;;;;;9.73;2.50;;;;;;;;;;5027713;28;20201;-66
2022/12/07 02:26:44;;;;;;;15.70;2.17;;;;;;;;;;5025314;28;20681;-68
2022/12/07 02:29:27;;;;;;;5.73;2.00;;;;;;;;;;5030719;28;20313;-67
2022/12/07 02:32:13;;;;;;;9.20;1.70;;;;;;;;;;5028317;28;20301;-67
2022/12/07 02:34:47;;;;;;;10.37;2.40;;;;;;;;;;5028440;28;20178;-67
2022/12/07 02:37:32;;;;;;;11.47;2.03;;;;;;;;;;5027774;28;20640;-67
2022/12/07 02:40:14;;;;;;;6.80;1.70;;;;;;;;;;5028475;28;21727;-67
2022/12/07 02:42:48;;;;;;;9.40;2.10;;;;;;;;;;5025325;28;20182;-67
2022/12/07 02:45:17;;;;;;;7.23;1.63;;;;;;;;;;5029052;28;20181;-67
2022/12/07 02:47:44;;;;;;;13.10;1.90;;;;;;;;;;5023189;28;20295;-67
2022/12/07 02:50:10;;;;;;;10.27;1.90;;;;;;;;;;5033789;28;20741;-67
2022/12/07 02:52:35;;;;;;;7.53;1.67;;;;;;;;;;5012725;28;20686;-67
2022/12/07 02:55:01;;;;;;;14.33;3.20;;;;;;;;;;5023368;28;20232;-67
2022/12/07 02:57:41;;;;;;;5.47;1.30;;;;;;;;;;5034067;28;20213;-67
2022/12/07 03:00:14;;;;;;;11.73;1.37;;;;;;;;;;5022465;28;20676;-67
2022/12/07 03:03:00;;;;;;;6.67;1.30;;;;;;;;;;5032116;28;20690;-67
2022/12/07 03:05:39;;;;;;;5.70;1.53;;;;;;;;;;5024531;28;20186;-66
2022/12/07 03:08:13;;;;;;;6.23;1.20;;;;;;;;;;5026737;28;20186;-66
2022/12/07 03:11:03;;;;;;;9.67;1.40;;;;;;;;;;5023009;28;20242;-67
2022/12/07 03:13:41;;;;;;;4.97;1.00;;;;;;;;;;5021246;28;20193;-67
2022/12/07 03:16:17;;;;;;;10.67;1.67;;;;;;;;;;5025492;28;20600;-67
2022/12/07 03:18:59;;;;;;;12.33;1.40;;;;;;;;;;5015520;28;20194;-67
2022/12/07 03:21:29;;;;;;;12.87;2.20;;;;;;;;;;5023035;28;20293;-67
2022/12/07 03:23:58;;;;;;;8.30;1.30;;;;;;;;;;5023049;28;20195;-67
2022/12/07 03:26:36;;;;;;;19.77;1.70;;;;;;;;;;5025418;28;20210;-66
2022/12/07 03:29:07;;;;;;;9.07;1.23;;;;;;;;;;5017133;28;20186;-68
2022/12/07 03:31:38;;;;;;;10.37;1.50;;;;;;;;;;5026881;28;20178;-67
2022/12/07 03:34:21;;;;;;;6.77;1.43;;;;;;;;;;5024429;28;20704;-67
2022/12/07 03:36:53;;;;;;;7.13;1.20;;;;;;;;;;5026819;28;20239;-67
2022/12/07 03:39:33;;;;;;;7.87;1.40;;;;;;;;;;5020340;28;20186;-67
2022/12/07 03:42:00;;;;;;;8.43;1.40;;;;;;;;;;5025584;28;20209;-67
2022/12/07 03:44:26;;;;;;;3.93;1.10;;;;;;;;;;5016629;28;20186;-67
2022/12/07 03:47:10;;;;;;;7.13;1.80;;;;;;;;;;5027928;28;20255;-68
2022/12/07 03:49:45;;;;;;;8.10;1.20;;;;;;;;;;5028791;28;20555;-67
2022/12/07 03:52:32;;;;;;;8.80;1.67;;;;;;;;;;5020609;28;20214;-67
2022/12/07 03:55:10;;;;;;;8.63;1.60;;;;;;;;;;5017390;28;20622;-68
2022/12/07 03:57:37;;;;;;;7.07;1.20;;;;;;;;;;5019814;28;20197;-67
2022/12/07 04:00:05;;;;;;;9.10;1.30;;;;;;;;;;5018487;28;20244;-67
2022/12/07 04:02:31;;;;;;;10.00;1.43;;;;;;;;;;5021708;28;20284;-68
2022/12/07 04:04:57;;;;;;;7.37;1.10;;;;;;;;;;5022750;28;20208;-68
2022/12/07 04:07:22;;;;;;;7.77;1.40;;;;;;;;;;5025077;28;20205;-67
2022/12/07 04:09:48;;;;;;;12.77;1.60;;;;;;;;;;5037923;28;20189;-67
2022/12/07 04:12:13;;;;;;;7.27;0.87;;;;;;;;;;5025405;28;20194;-67
2022/12/07 04:14:38;;;;;;;6.73;0.90;;;;;;;;;;5030104;28;20221;-67
2022/12/07 04:17:04;;;;;;;10.17;1.20;;;;;;;;;;5027822;28;20190;-67
2022/12/07 04:19:32;;;;;;;9.97;1.57;;;;;;;;;;5029561;28;20193;-67
2022/12/07 04:21:58;;;;;;;5.63;1.10;;;;;;;;;;5023995;28;20194;-67
2022/12/07 04:24:24;;;;;;;9.00;1.10;;;;;;;;;;5027159;28;20182;-67
2022/12/07 04:26:49;;;;;;;7.33;1.10;;;;;;;;;;5023161;28;20692;-68
2022/12/07 04:29:16;;;;;;;8.87;1.20;;;;;;;;;;5025865;28;20185;-67
2022/12/07 04:31:41;;;;;;;7.70;1.10;;;;;;;;;;5023817;28;20186;-67
2022/12/07 04:34:07;;;;;;;11.80;1.57;;;;;;;;;;5025818;28;20224;-67
2022/12/07 04:36:33;;;;;;;8.20;1.17;;;;;;;;;;5024282;28;20205;-68
2022/12/07 04:38:58;;;;;;;7.33;1.10;;;;;;;;;;5024867;28;20899;-67
2022/12/07 04:41:27;;;;;;;7.47;1.00;;;;;;;;;;5027107;28;20193;-67
2022/12/07 04:43:58;;;;;;;6.70;1.40;;;;;;;;;;5026003;28;20193;-68
2022/12/07 04:46:24;;;;;;;7.87;1.07;;;;;;;;;;5022647;28;20205;-67
2022/12/07 04:48:51;;;;;;;7.50;1.17;;;;;;;;;;5025462;28;20618;-67
2022/12/07 04:51:20;;;;;;;5.63;1.17;;;;;;;;;;5024119;28;20186;-67
2022/12/07 04:53:45;;;;;;;7.53;0.97;;;;;;;;;;5028320;28;20189;-68
2022/12/07 04:56:11;;;;;;;7.43;1.00;;;;;;;;;;5035510;28;20209;-67
2022/12/07 04:58:36;;;;;;;6.40;1.20;;;;;;;;;;5029900;28;20672;-67
2022/12/07 05:01:01;;;;;;;7.50;1.13;;;;;;;;;;5022282;28;20257;-68
2022/12/07 05:03:27;;;;;;;9.97;1.10;;;;;;;;;;5024274;28;20610;-67
2022/12/07 05:05:52;;;;;;;10.87;1.20;;;;;;;;;;5026187;28;20243;-67
2022/12/07 05:08:17;;;;;;;6.30;0.93;;;;;;;;;;5023221;28;20561;-67
2022/12/07 05:10:42;;;;;;;8.03;0.90;;;;;;;;;;5024706;28;20863;-67
2022/12/07 05:13:08;;;;;;;9.00;1.10;;;;;;;;;;5023576;28;20711;-67
2022/12/07 05:15:33;;;;;;;11.70;1.20;;;;;;;;;;5021152;28;20565;-68
2022/12/07 05:17:59;;;;;;;7.97;1.10;;;;;;;;;;5011384;28;20559;-67
2022/12/07 05:20:24;;;;;;;6.43;1.10;;;;;;;;;;5018196;28;20641;-67
2022/12/07 05:22:49;;;;;;;10.77;1.20;;;;;;;;;;5017507;28;20183;-67
2022/12/07 05:25:15;;;;;;;9.00;1.23;;;;;;;;;;5013793;28;20194;-68
2022/12/07 05:27:40;;;;;;;8.40;1.20;;;;;;;;;;5024435;28;20217;-67
2022/12/07 05:30:06;;;;;;;7.17;1.10;;;;;;;;;;5023080;28;20297;-67
2022/12/07 05:32:31;;;;;;;8.80;1.47;;;;;;;;;;5018251;28;20394;-68
2022/12/07 05:34:56;;;;;;;5.93;1.00;;;;;;;;;;5024147;28;20190;-68
2022/12/07 05:37:22;;;;;;;7.23;1.60;;;;;;;;;;5022725;28;20182;-68
2022/12/07 05:39:47;;;;;;;7.87;1.30;;;;;;;;;;5026976;28;20202;-68
2022/12/07 05:42:12;;;;;;;9.17;1.37;;;;;;;;;;5025194;28;20189;-68
2022/12/07 05:44:43;;;;;;;8.70;1.17;;;;;;;;;;5019419;28;20525;-67
2022/12/07 05:47:08;;;;;;;7.80;1.90;;;;;;;;;;5026657;28;20240;-67
2022/12/07 05:49:34;;;;;;;6.53;1.37;;;;;;;;;;5020309;28;20218;-68
2022/12/07 05:51:59;;;;;;;10.33;1.10;;;;;;;;;;5021206;28;20183;-67
2022/12/07 05:54:25;;;;;;;12.30;1.40;;;;;;;;;;5018636;28;20756;-68
2022/12/07 05:56:50;;;;;;;7.53;1.00;;;;;;;;;;5024215;28;20182;-67
2022/12/07 05:59:22;;;;;;;12.10;1.50;;;;;;;;;;5021501;28;20550;-68
2022/12/07 06:01:52;;;;;;;18.97;1.90;;;;;;;;;;5018428;28;20277;-68
2022/12/07 06:04:18;;;;;;;12.17;1.93;;;;;;;;;;5011080;28;20648;-68
2022/12/07 06:06:43;;;;;;;11.70;1.40;;;;;;;;;;5011249;28;20202;-67
2022/12/07 06:09:09;;;;;;;6.90;1.50;;;;;;;;;;5011993;28;20667;-67
2022/12/07 06:14:18;;;;;;;10.57;1.37;;;;;;;;;;5013855;28;20542;-67
2022/12/07 06:16:43;;;;;;;8.37;1.07;;;;;;;;;;5026767;28;20183;-68
2022/12/07 06:19:09;;;;;;;7.30;1.57;;;;;;;;;;5017532;28;20186;-68
2022/12/07 06:21:34;;;;;;;9.17;1.57;;;;;;;;;;5018304;28;20206;-67
2022/12/07 06:24:00;;;;;;;7.30;1.23;;;;;;;;;;5023181;28;20186;-67
2022/12/07 06:26:25;;;;;;;11.80;1.30;;;;;;;;;;5025642;28;20265;-67
2022/12/07 06:28:50;;;;;;;9.30;1.30;;;;;;;;;;5015959;28;20209;-67
2022/12/07 06:31:16;;;;;;;13.30;1.43;;;;;;;;;;5021445;28;20610;-69
2022/12/07 06:33:42;;;;;;;8.40;1.30;;;;;;;;;;5009988;28;20199;-67
2022/12/07 06:36:07;;;;;;;7.47;1.73;;;;;;;;;;5019656;28;20178;-67
2022/12/07 06:38:33;;;;;;;11.77;1.97;;;;;;;;;;5030641;28;20182;-68
2022/12/07 06:40:58;;;;;;;10.70;2.10;;;;;;;;;;5011970;28;20198;-68
2022/12/07 06:43:23;;;;;;;10.30;1.67;;;;;;;;;;5010176;28;20193;-68
2022/12/07 06:45:49;;;;;;;10.63;2.10;;;;;;;;;;5025058;28;20639;-68
2022/12/07 06:48:14;;;;;;;15.13;1.80;;;;;;;;;;5014152;28;20720;-68
2022/12/07 06:50:39;;;;;;;8.93;1.50;;;;;;;;;;5027538;28;20340;-68
2022/12/07 06:53:05;;;;;;;12.00;2.40;;;;;;;;;;5023422;28;20193;-68
2022/12/07 06:55:31;;;;;;;9.97;1.63;;;;;;;;;;5032488;28;20192;-67
2022/12/07 06:57:56;;;;;;;9.60;1.53;;;;;;;;;;5022434;28;20314;-67
2022/12/07 07:00:22;;;;;;;8.03;1.60;;;;;;;;;;5030309;28;20225;-68
2022/12/07 07:02:47;;;;;;;15.63;1.80;;;;;;;;;;5017763;28;20245;-68
2022/12/07 07:05:12;;;;;;;9.70;2.10;;;;;;;;;;5018265;28;20598;-68
2022/12/07 07:07:38;;;;;;;9.13;1.73;;;;;;;;;;5033340;28;20256;-67
2022/12/07 07:10:04;;;;;;;16.53;3.53;;;;;;;;;;5010911;28;20190;-67
2022/12/07 07:12:29;;;;;;;9.37;2.77;;;;;;;;;;5013133;28;20249;-67
2022/12/07 07:14:54;;;;;;;11.73;1.40;;;;;;;;;;5009440;28;20194;-67
2022/12/07 07:17:20;;;;;;;9.70;1.80;;;;;;;;;;5011324;28;20246;-68
2022/12/07 07:19:45;;;;;;;8.77;1.80;;;;;;;;;;5012037;28;20265;-68
2022/12/07 07:22:10;;;;;;;7.63;1.43;;;;;;;;;;5011644;28;20187;-68
2022/12/07 07:24:36;;;;;;;9.57;1.27;;;;;;;;;;5010294;28;20249;-68
2022/12/07 07:27:01;;;;;;;15.23;1.70;;;;;;;;;;5020306;28;20609;-68
2022/12/07 07:29:26;;;;;;;11.63;1.33;;;;;;;;;;5010526;28;20182;-68
2022/12/07 07:31:52;;;;;;;10.90;1.63;;;;;;;;;;5023738;28;20606;-67
2022/12/07 07:34:17;;;;;;;8.20;1.43;;;;;;;;;;5013145;28;20195;-68
2022/12/07 07:36:42;;;;;;;9.20;1.33;;;;;;;;;;5009946;28;20187;-68
2022/12/07 07:39:09;;;;;;;10.27;2.17;;;;;;;;;;5029782;28;20536;-68
2022/12/07 07:41:35;;;;;;;9.67;2.80;;;;;;;;;;5012075;28;20179;-68
2022/12/07 07:44:01;;;;;;;10.17;1.57;;;;;;;;;;5010544;28;20206;-68
2022/12/07 07:46:26;;;;;;;12.13;1.47;;;;;;;;;;5014318;28;20238;-68
2022/12/07 07:48:51;;;;;;;8.10;1.43;;;;;;;;;;5022862;28;20646;-68
2022/12/07 07:51:17;;;;;;;6.53;1.47;;;;;;;;;;5021158;28;20289;-68
2022/12/07 07:53:42;;;;;;;16.90;1.67;;;;;;;;;;5021116;28;20193;-68
2022/12/07 07:56:07;;;;;;;8.90;1.63;;;;;;;;;;5028837;28;20182;-68
2022/12/07 07:58:33;;;;;;;13.97;1.70;;;;;;;;;;5043337;28;20225;-68
2022/12/07 08:01:04;;;;;;;7.27;1.57;;;;;;;;;;5027197;28;20202;-68
2022/12/07 08:03:30;;;;;;;10.00;2.27;;;;;;;;;;5029698;28;20206;-68
2022/12/07 08:05:55;;;;;;;10.67;1.83;;;;;;;;;;5039507;28;20280;-68
2022/12/07 08:08:20;;;;;;;11.37;2.27;;;;;;;;;;5021775;28;20182;-68
2022/12/07 08:10:46;;;;;;;9.83;1.80;;;;;;;;;;5018828;28;20247;-67
2022/12/07 08:13:11;;;;;;;7.83;1.63;;;;;;;;;;5018052;28;20210;-68
2022/12/07 08:15:38;;;;;;;13.23;2.17;;;;;;;;;;5021196;28;20243;-67
2022/12/07 08:18:04;;;;;;;11.13;2.13;;;;;;;;;;5028722;28;20185;-68
2022/12/07 08:20:30;;;;;;;13.30;2.30;;;;;;;;;;5020822;28;20233;-68
2022/12/07 08:22:55;;;;;;;9.53;2.20;;;;;;;;;;5023525;28;20357;-67
2022/12/07 08:25:24;;;;;;;13.77;2.83;;;;;;;;;;5009058;28;20259;-67
2022/12/07 08:27:50;;;;;;;12.57;2.37;;;;;;;;;;5016508;28;20206;-67
2022/12/07 08:30:16;;;;;;;13.77;2.57;;;;;;;;;;5022517;28;20217;-68
2022/12/07 08:32:43;;;;;;;11.77;3.43;;;;;;;;;;5015821;28;20655;-68
2022/12/07 08:35:08;;;;;;;12.43;2.50;;;;;;;;;;5027565;28;20638;-68
2022/12/07 08:37:34;;;;;;;12.07;2.23;;;;;;;;;;5029063;28;20308;-68
2022/12/07 08:39:59;;;;;;;8.93;2.53;;;;;;;;;;5020012;28;20197;-68
2022/12/07 08:42:29;;;;;;;11.53;1.60;;;;;;;;;;5029588;28;20189;-68
2022/12/07 08:44:55;;;;;;;11.43;2.17;;;;;;;;;;5022200;28;20261;-68
2022/12/07 08:47:20;;;;;;;8.40;2.13;;;;;;;;;;5012358;28;20297;-67
2022/12/07 08:49:48;;;;;;;11.17;2.20;;;;;;;;;;5038508;28;20268;-67
2022/12/07 08:52:13;;;;;;;10.63;1.70;;;;;;;;;;5026033;28;20476;-67
2022/12/07 08:54:40;;;;;;;10.90;2.40;;;;;;;;;;5020978;28;20695;-67
2022/12/07 08:57:06;;;;;;;9.57;2.60;;;;;;;;;;5027738;28;20185;-68
2022/12/07 08:59:33;;;;;;;11.00;2.43;;;;;;;;;;5026027;28;20205;-68
2022/12/07 09:01:59;;;;;;;12.13;2.43;;;;;;;;;;5016714;28;20234;-67
2022/12/07 09:04:24;;;;;;;10.17;1.80;;;;;;;;;;5027103;28;20181;-68
2022/12/07 09:06:50;;;;;;;7.43;1.73;;;;;;;;;;5030475;28;20248;-68
2022/12/07 09:09:15;;;;;;;16.93;1.60;;;;;;;;;;5023292;28;20185;-68
2022/12/07 09:11:41;;;;;;;7.93;1.43;;;;;;;;;;5038490;28;20518;-68
2022/12/07 09:14:06;;;;;;;7.07;1.50;;;;;;;;;;5025053;28;20177;-68
2022/12/07 09:16:31;;;;;;;9.90;2.07;;;;;;;;;;5012285;28;20185;-67
2022/12/07 09:18:57;;;;;;;9.63;2.27;;;;;;;;;;5009814;28;20178;-67
2022/12/07 09:21:22;;;;;;;6.17;2.33;;;;;;;;;;5015809;28;20182;-67
2022/12/07 09:23:47;;;;;;;6.87;2.67;;;;;;;;;;5020266;28;20209;-68
2022/12/07 09:26:13;;;;;;;7.83;1.90;;;;;;;;;;5008697;28;20613;-68
2022/12/07 09:28:39;;;;;;;8.17;1.83;;;;;;;;;;5008349;28;20550;-68
2022/12/07 09:31:04;;;;;;;12.53;1.90;;;;;;;;;;5010289;28;20742;-67
2022/12/07 09:33:29;;;;;;;12.90;2.20;;;;;;;;;;5007857;28;20182;-68
2022/12/07 09:35:55;;;;;;;11.77;1.43;;;;;;;;;;5012604;28;20243;-68
2022/12/07 09:38:20;;;;;;;8.03;1.50;;;;;;;;;;5016341;28;20257;-68
2022/12/07 09:40:47;;;;;;;4.03;1.07;;;;;;;;;;5032597;28;20252;-68
2022/12/07 09:43:16;;;;;;;8.27;1.57;;;;;;;;;;5014158;28;20179;-68
2022/12/07 09:45:43;;;;;;;8.77;1.50;;;;;;;;;;5021494;28;20182;-67
2022/12/07 09:48:17;;;;;;;4.90;1.20;;;;;;;;;;5012589;28;20278;-67
2022/12/07 09:50:43;;;;;;;9.40;2.20;;;;;;;;;;5016003;28;20182;-67
2022/12/07 09:53:15;;;;;;;12.23;1.37;;;;;;;;;;5027351;28;20185;-68
2022/12/07 09:55:42;;;;;;;8.73;1.63;;;;;;;;;;5010564;28;20669;-68
2022/12/07 09:58:24;;;;;;;5.90;1.53;;;;;;;;;;5007748;28;20516;-68
2022/12/07 10:00:58;;;;;;;8.07;1.13;;;;;;;;;;5011748;28;20329;-67
2022/12/07 10:03:28;;;;;;;5.50;1.30;;;;;;;;;;5020040;28;20170;-68
2022/12/07 10:05:54;;;;;;;11.33;1.63;;;;;;;;;;5010415;28;20186;-67
2022/12/07 10:08:20;;;;;;;6.70;0.97;;;;;;;;;;5023081;28;20243;-67
2022/12/07 10:10:58;;;;;;;8.20;1.20;;;;;;;;;;5017878;28;20241;-67
2022/12/07 10:13:48;;;;;;;6.97;1.30;;;;;;;;;;5024520;28;20182;-67
2022/12/07 10:16:35;;;;;;;5.13;1.10;;;;;;;;;;5008444;28;20241;-67
2022/12/07 10:19:35;;;;;;;7.80;1.10;;;;;;;;;;5008847;28;20546;-68
2022/12/07 10:22:00;;;;;;;6.17;1.43;;;;;;;;;;5006911;28;20294;-67
2022/12/07 10:24:26;;;;;;;6.20;1.80;;;;;;;;;;5012474;28;20268;-67
2022/12/07 10:26:52;;;;;;;8.20;0.97;;;;;;;;;;5013162;28;20203;-67
2022/12/07 10:29:34;;;;;;;5.03;1.10;;;;;;;;;;5019318;28;20177;-67
2022/12/07 10:32:30;;;;;;;6.27;1.00;;;;;;;;;;5012015;28;20185;-67
2022/12/07 10:35:21;;;;;;;6.20;1.30;;;;;;;;;;5011319;28;20217;-68
2022/12/07 10:37:47;;;;;;;4.20;1.10;;;;;;;;;;5012719;28;20202;-67
2022/12/07 10:40:26;;;;;;;8.27;1.70;;;;;;;;;;5024054;28;20348;-67
2022/12/07 10:43:13;;;;;;;7.83;0.93;;;;;;;;;;5025786;28;20213;-67
2022/12/07 10:46:13;;;;;;;4.07;1.30;;;;;;;;;;5012669;28;20187;-67
2022/12/07 10:49:07;;;;;;;5.50;1.30;;;;;;;;;;5013095;28;20650;-67
2022/12/07 10:51:50;;;;;;;7.73;1.67;;;;;;;;;;5013557;28;20213;-67
2022/12/07 10:54:31;;;;;;;7.10;1.60;;;;;;;;;;5014761;28;20236;-67
2022/12/07 10:57:34;;;;;;;8.43;1.20;;;;;;;;;;5015807;28;20634;-67
2022/12/07 11:00:11;;;;;;;6.80;0.90;;;;;;;;;;5012745;28;20272;-67
2022/12/07 11:03:02;;;;;;;7.57;1.13;;;;;;;;;;5026154;28;20337;-67
2022/12/07 11:05:50;;;;;;;6.43;2.07;;;;;;;;;;5009409;28;20266;-67
2022/12/07 11:08:34;;;;;;;7.33;1.40;;;;;;;;;;5028641;28;20263;-67
2022/12/07 11:11:13;;;;;;;4.17;0.67;;;;;;;;;;5013502;28;20623;-67
2022/12/07 11:14:03;;;;;;;7.57;1.20;;;;;;;;;;5011133;28;20186;-67
2022/12/07 11:16:44;;;;;;;8.23;1.07;;;;;;;;;;5022955;28;20187;-67
2022/12/07 11:19:16;;;;;;;7.70;1.10;;;;;;;;;;5016451;28;20259;-67
2022/12/07 11:21:55;;;;;;;7.37;1.03;;;;;;;;;;5016391;28;20186;-67
2022/12/07 11:24:55;;;;;;;10.10;0.93;;;;;;;;;;5010719;28;20265;-67
2022/12/07 11:27:39;;;;;;;4.70;0.67;;;;;;;;;;5013797;28;20213;-67
2022/12/07 11:30:07;;;;;;;5.33;0.93;;;;;;;;;;5019567;28;20282;-67
2022/12/07 11:32:51;;;;;;;7.50;1.10;;;;;;;;;;5026384;28;20256;-66
2022/12/07 11:35:31;;;;;;;7.60;1.10;;;;;;;;;;5023147;28;20589;-67
2022/12/07 11:38:08;;;;;;;8.90;0.77;;;;;;;;;;5025012;28;20265;-68
2022/12/07 11:40:35;;;;;;;8.27;0.70;;;;;;;;;;5011274;28;20178;-67
2022/12/07 11:43:15;;;;;;;7.87;1.93;;;;;;;;;;5026960;28;20261;-67
2022/12/07 11:45:46;;;;;;;6.47;1.07;;;;;;;;;;5012077;28;20182;-67
2022/12/07 11:48:20;;;;;;;7.93;1.20;;;;;;;;;;5012436;28;20682;-67
2022/12/07 11:50:49;;;;;;;12.83;1.27;;;;;;;;;;5020932;28;20730;-67
2022/12/07 11:53:23;;;;;;;6.03;0.97;;;;;;;;;;5019107;28;20278;-67
2022/12/07 11:55:59;;;;;;;9.20;1.10;;;;;;;;;;5035813;28;20675;-67
2022/12/07 11:58:50;;;;;;;3.50;1.10;;;;;;;;;;5029403;28;20256;-67
2022/12/07 12:01:45;;;;;;;8.20;1.20;;;;;;;;;;5029859;28;20221;-67
2022/12/07 12:04:11;;;;;;;4.33;1.17;;;;;;;;;;5014804;28;20188;-66
2022/12/07 12:06:38;;;;;;;8.93;1.37;;;;;;;;;;5018770;28;20673;-67
2022/12/07 12:09:19;;;;;;;7.87;1.37;;;;;;;;;;5025995;28;20281;-67
2022/12/07 12:12:02;;;;;;;7.03;1.43;;;;;;;;;;5019118;28;20236;-67
2022/12/07 12:14:49;;;;;;;4.90;0.73;;;;;;;;;;5020867;28;20397;-66
2022/12/07 12:17:14;;;;;;;11.30;1.40;;;;;;;;;;5021967;28;20232;-67
2022/12/07 12:19:59;;;;;;;6.73;1.00;;;;;;;;;;5023788;28;20915;-67
2022/12/07 12:22:33;;;;;;;7.30;1.13;;;;;;;;;;5026037;28;20840;-67
2022/12/07 12:24:59;;;;;;;7.67;0.83;;;;;;;;;;5023503;28;20595;-68
2022/12/07 12:27:29;;;;;;;4.17;0.80;;;;;;;;;;5028761;28;20255;-67
2022/12/07 12:29:58;;;;;;;4.47;0.80;;;;;;;;;;5034290;28;20181;-67
2022/12/07 12:32:29;;;;;;;5.70;1.00;;;;;;;;;;5028561;28;20384;-66
2022/12/07 12:35:02;;;;;;;7.87;1.03;;;;;;;;;;5023455;28;20261;-66
2022/12/07 12:37:33;;;;;;;8.83;1.30;;;;;;;;;;5024669;28;20264;-66
2022/12/07 12:40:13;;;;;;;4.77;0.87;;;;;;;;;;5019957;28;20189;-67
2022/12/07 12:42:50;;;;;;;4.00;0.73;;;;;;;;;;5034348;28;20598;-66
2022/12/07 12:45:32;;;;;;;5.90;1.50;;;;;;;;;;5026252;28;20264;-66
2022/12/07 12:47:59;;;;;;;5.20;0.90;;;;;;;;;;5028098;28;20241;-66
2022/12/07 12:50:37;;;;;;;7.47;1.60;;;;;;;;;;5018251;28;20474;-66
2022/12/07 12:53:13;;;;;;;8.33;1.03;;;;;;;;;;5017467;28;20591;-66
2022/12/07 12:55:42;;;;;;;9.50;1.57;;;;;;;;;;5025296;28;20174;-66
2022/12/07 12:58:19;;;;;;;8.10;1.40;;;;;;;;;;5020406;28;20185;-67
2022/12/07 13:00:45;;;;;;;6.40;1.87;;;;;;;;;;5017589;28;20271;-66
2022/12/07 13:03:26;;;;;;;7.83;1.67;;;;;;;;;;5013066;28;20194;-66
2022/12/07 13:06:17;;;;;;;5.50;1.30;;;;;;;;;;5007825;28;20183;-65
2022/12/07 13:08:42;;;;;;;5.87;1.20;;;;;;;;;;5014429;28;20175;-65
2022/12/07 13:11:43;;;;;;;9.13;2.07;;;;;;;;;;5012384;28;20187;-66
2022/12/07 13:14:40;;;;;;;5.87;1.17;;;;;;;;;;5005827;28;20233;-66
2022/12/07 13:17:09;;;;;;;6.03;1.10;;;;;;;;;;5011507;28;20678;-66
2022/12/07 13:19:41;;;;;;;10.23;1.97;;;;;;;;;;5031357;28;20641;-66
2022/12/07 13:22:30;;;;;;;8.23;1.80;;;;;;;;;;5021859;28;20627;-67
2022/12/07 13:24:59;;;;;;;6.93;1.50;;;;;;;;;;5022049;28;20202;-66
2022/12/07 13:27:26;;;;;;;7.30;1.33;;;;;;;;;;5035853;28;20213;-66
2022/12/07 13:29:52;;;;;;;6.53;1.37;;;;;;;;;;5021874;28;20265;-66
2022/12/07 13:32:26;;;;;;;4.93;1.30;;;;;;;;;;5017070;28;20266;-67
2022/12/07 13:34:52;;;;;;;4.37;0.93;;;;;;;;;;5022296;28;20294;-67
2022/12/07 13:37:24;;;;;;;6.77;1.40;;;;;;;;;;5019703;28;20289;-66
2022/12/07 13:39:52;;;;;;;6.37;1.10;;;;;;;;;;5025264;28;20602;-66
2022/12/07 13:42:28;;;;;;;7.00;1.10;;;;;;;;;;5020103;28;20190;-66
2022/12/07 13:44:55;;;;;;;6.87;1.80;;;;;;;;;;5027215;28;20215;-67
2022/12/07 13:47:26;;;;;;;6.57;1.20;;;;;;;;;;5026804;28;20561;-67
2022/12/07 13:49:54;;;;;;;9.63;1.83;;;;;;;;;;5013151;28;20686;-66
2022/12/07 13:52:25;;;;;;;9.57;1.70;;;;;;;;;;5026353;28;20212;-66
2022/12/07 13:55:13;;;;;;;10.67;2.17;;;;;;;;;;5027212;28;20257;-66
2022/12/07 13:57:38;;;;;;;10.73;2.10;;;;;;;;;;5014329;28;20264;-66
2022/12/07 14:00:13;;;;;;;13.10;2.07;;;;;;;;;;5022879;28;20213;-66
2022/12/07 14:03:01;;;;;;;8.27;1.57;;;;;;;;;;5032348;28;20646;-65
2022/12/07 14:05:28;;;;;;;5.27;1.20;;;;;;;;;;5031384;28;20198;-66
2022/12/07 14:07:57;;;;;;;4.67;1.03;;;;;;;;;;5028250;28;20202;-66
2022/12/07 14:10:34;;;;;;;10.77;1.50;;;;;;;;;;5021071;28;20186;-66
2022/12/07 14:13:01;;;;;;;11.60;1.53;;;;;;;;;;5018306;28;20190;-67
2022/12/07 14:15:30;;;;;;;8.77;1.50;;;;;;;;;;5028172;28;20198;-66
2022/12/07 14:17:57;;;;;;;9.90;1.30;;;;;;;;;;5013200;28;20233;-66
2022/12/07 14:20:40;;;;;;;7.20;1.37;;;;;;;;;;5013090;28;20660;-66
2022/12/07 14:23:27;;;;;;;8.03;1.53;;;;;;;;;;5012881;28;20214;-66
2022/12/07 14:25:53;;;;;;;7.73;1.50;;;;;;;;;;5013072;28;20210;-65
2022/12/07 14:28:28;;;;;;;8.17;1.60;;;;;;;;;;5012983;28;20272;-66
2022/12/07 14:30:53;;;;;;;11.80;1.60;;;;;;;;;;5011111;28;20186;-66
2022/12/07 14:33:19;;;;;;;11.87;2.13;;;;;;;;;;5010599;28;20656;-65
2022/12/07 14:35:44;;;;;;;6.10;1.37;;;;;;;;;;5015778;28;20218;-65
2022/12/07 14:38:09;;;;;;;9.23;1.73;;;;;;;;;;5019573;28;20514;-65
2022/12/07 14:40:35;;;;;;;10.27;1.53;;;;;;;;;;5015656;28;20625;-65
2022/12/07 14:43:06;;;;;;;10.07;2.13;;;;;;;;;;5016620;28;20253;-65
2022/12/07 14:45:31;;;;;;;6.43;1.63;;;;;;;;;;5012281;28;20271;-65
2022/12/07 14:47:57;;;;;;;11.73;1.60;;;;;;;;;;5013445;28;20211;-66
2022/12/07 14:50:22;;;;;;;12.90;1.40;;;;;;;;;;5016480;28;20635;-65
2022/12/07 14:53:18;;;;;;;7.87;1.10;;;;;;;;;;5013357;28;20662;-66
2022/12/07 14:55:44;;;;;;;4.83;1.40;;;;;;;;;;5022188;28;20206;-66
2022/12/07 14:58:16;;;;;;;8.17;1.03;;;;;;;;;;5023704;28;20182;-65
2022/12/07 15:00:43;;;;;;;13.07;2.00;;;;;;;;;;5022943;28;20206;-67
2022/12/07 15:03:08;;;;;;;7.20;1.10;;;;;;;;;;5023540;28;20687;-66